Time;durP1;ratioP1;P1;durP2;ratioP2;P2;SDS_P1;SDS_P2;PMS_P1;PMS_P2;Temp;Humidity;BMP_temperature;BMP_pressure;BME280_temperature;BME280_humidity;BME280_pressure;Samples;Min_cycle;Max_cycle;Signal;HPM_P1;HPM_P2
2023/05/10 00:00:53;;;;;;;11.07;9.70;;;;;;;;;;4992365;28;20029;-82
2023/05/10 00:03:19;;;;;;;15.02;11.60;;;;;;;;;;4986285;28;20472;-80
2023/05/10 00:05:45;;;;;;;16.38;11.18;;;;;;;;;;4987563;28;20108;-80
2023/05/10 00:08:11;;;;;;;13.88;12.43;;;;;;;;;;4987169;28;20073;-81
2023/05/10 00:10:37;;;;;;;14.88;13.07;;;;;;;;;;4972328;28;20034;-80
2023/05/10 00:13:04;;;;;;;14.00;12.55;;;;;;;;;;4988950;28;20121;-82
2023/05/10 00:15:34;;;;;;;14.88;13.27;;;;;;;;;;4991694;28;20134;-81
2023/05/10 00:18:00;;;;;;;14.65;12.35;;;;;;;;;;4991523;28;20026;-80
2023/05/10 00:20:26;;;;;;;13.55;11.85;;;;;;;;;;4970027;28;20101;-82
2023/05/10 00:22:52;;;;;;;11.50;10.25;;;;;;;;;;4992604;28;20044;-81
2023/05/10 00:25:18;;;;;;;14.20;9.95;;;;;;;;;;4971656;28;20038;-82
2023/05/10 00:27:44;;;;;;;10.25;8.27;;;;;;;;;;4972693;28;20350;-81
2023/05/10 00:30:10;;;;;;;7.80;7.10;;;;;;;;;;4989572;28;20031;-80
2023/05/10 00:32:36;;;;;;;8.43;7.38;;;;;;;;;;4998525;28;20033;-82
2023/05/10 00:35:02;;;;;;;9.75;7.57;;;;;;;;;;4974073;28;20391;-81
2023/05/10 00:37:28;;;;;;;9.25;8.10;;;;;;;;;;4991205;28;20407;-82
2023/05/10 00:39:54;;;;;;;11.13;8.45;;;;;;;;;;4973718;28;20066;-81
2023/05/10 00:42:20;;;;;;;9.80;8.80;;;;;;;;;;4971780;28;20495;-81
2023/05/10 00:44:46;;;;;;;9.05;8.07;;;;;;;;;;4988341;28;20061;-81
2023/05/10 00:47:12;;;;;;;8.80;7.90;;;;;;;;;;4994413;28;20034;-79
2023/05/10 00:49:39;;;;;;;7.55;6.78;;;;;;;;;;4990817;28;20038;-81
2023/05/10 00:52:05;;;;;;;7.30;6.60;;;;;;;;;;4990397;28;20031;-81
2023/05/10 00:54:31;;;;;;;7.32;6.60;;;;;;;;;;4988006;28;20455;-83
2023/05/10 00:56:58;;;;;;;7.82;7.13;;;;;;;;;;4988687;28;20026;-81
2023/05/10 00:59:25;;;;;;;9.88;8.38;;;;;;;;;;4989318;28;20502;-82
2023/05/10 01:01:51;;;;;;;9.18;8.27;;;;;;;;;;4995798;28;20026;-82
2023/05/10 01:04:21;;;;;;;8.32;7.53;;;;;;;;;;4985614;28;20617;-82
2023/05/10 01:06:47;;;;;;;9.65;8.65;;;;;;;;;;4990312;28;20073;-82
2023/05/10 01:09:13;;;;;;;10.43;8.18;;;;;;;;;;4987723;28;20026;-82
2023/05/10 01:11:40;;;;;;;10.90;8.43;;;;;;;;;;4991948;28;20558;-82
2023/05/10 01:14:06;;;;;;;10.10;8.77;;;;;;;;;;4989649;28;20418;-82
2023/05/10 01:16:34;;;;;;;12.60;9.30;;;;;;;;;;4974402;28;20455;-82
2023/05/10 01:19:01;;;;;;;11.63;9.18;;;;;;;;;;4989692;28;20097;-82
2023/05/10 01:21:46;;;;;;;13.65;9.73;;;;;;;;;;4987234;28;20065;-82
2023/05/10 01:24:34;;;;;;;14.75;10.30;;;;;;;;;;4989537;28;20030;-82
2023/05/10 01:27:00;;;;;;;17.30;11.38;;;;;;;;;;4972716;28;20081;-82
2023/05/10 01:29:44;;;;;;;19.75;12.88;;;;;;;;;;4988785;28;20054;-82
2023/05/10 01:32:22;;;;;;;21.95;13.00;;;;;;;;;;4992800;28;20034;-82
2023/05/10 01:35:00;;;;;;;24.25;13.70;;;;;;;;;;4988880;28;20482;-81
2023/05/10 01:37:31;;;;;;;22.15;13.45;;;;;;;;;;4961938;28;20065;-82
2023/05/10 01:40:20;;;;;;;27.20;14.85;;;;;;;;;;4988363;28;20031;-81
2023/05/10 01:42:48;;;;;;;26.58;15.80;;;;;;;;;;4988970;28;20109;-81
2023/05/10 01:45:32;;;;;;;26.67;16.67;;;;;;;;;;4990515;28;20030;-81
2023/05/10 01:48:02;;;;;;;26.65;16.90;;;;;;;;;;4985701;28;20050;-82
2023/05/10 01:50:30;;;;;;;73.22;44.63;;;;;;;;;;4990430;28;20136;-86
2023/05/10 01:52:58;;;;;;;39.25;23.23;;;;;;;;;;4980280;28;20248;-87
2023/05/10 01:55:26;;;;;;;31.88;20.60;;;;;;;;;;4991375;28;20039;-81
2023/05/10 01:57:56;;;;;;;26.10;16.23;;;;;;;;;;4990135;28;20476;-83
2023/05/10 02:00:23;;;;;;;26.77;16.05;;;;;;;;;;4990725;28;20041;-83
2023/05/10 02:02:50;;;;;;;29.40;17.45;;;;;;;;;;4974262;28;20038;-83
2023/05/10 02:05:17;;;;;;;33.22;19.42;;;;;;;;;;4957897;28;20304;-82
2023/05/10 02:07:44;;;;;;;33.75;18.98;;;;;;;;;;4968316;28;20030;-82
2023/05/10 02:10:11;;;;;;;33.42;19.25;;;;;;;;;;4985931;28;20022;-81
2023/05/10 02:12:38;;;;;;;28.52;18.00;;;;;;;;;;4967103;28;20117;-83
2023/05/10 02:15:06;;;;;;;28.67;18.15;;;;;;;;;;4989479;28;20034;-82
2023/05/10 02:17:36;;;;;;;27.45;19.92;;;;;;;;;;4989300;28;20041;-82
2023/05/10 02:20:03;;;;;;;29.60;18.88;;;;;;;;;;4983771;28;20525;-82
2023/05/10 02:22:29;;;;;;;28.23;18.60;;;;;;;;;;4972288;28;20037;-82
2023/05/10 02:24:56;;;;;;;31.92;18.13;;;;;;;;;;4989629;28;20077;-82
2023/05/10 02:27:23;;;;;;;25.23;17.25;;;;;;;;;;4988023;28;20731;-82
2023/05/10 02:29:50;;;;;;;28.50;18.08;;;;;;;;;;4989993;28;20042;-82
2023/05/10 02:32:17;;;;;;;25.63;16.75;;;;;;;;;;4986826;28;20117;-82
2023/05/10 02:34:45;;;;;;;26.65;17.02;;;;;;;;;;4988433;28;20045;-83
2023/05/10 02:37:11;;;;;;;25.73;16.20;;;;;;;;;;4975538;28;20058;-83
2023/05/10 02:39:40;;;;;;;25.67;15.73;;;;;;;;;;4989575;28;20165;-83
2023/05/10 02:42:06;;;;;;;25.75;15.77;;;;;;;;;;4988839;28;20027;-82
2023/05/10 02:44:33;;;;;;;30.98;15.90;;;;;;;;;;4989073;28;20049;-83
2023/05/10 02:46:59;;;;;;;25.88;15.75;;;;;;;;;;4990881;28;20380;-82
2023/05/10 02:49:25;;;;;;;26.13;13.80;;;;;;;;;;4986521;28;20035;-83
2023/05/10 02:51:56;;;;;;;23.25;13.32;;;;;;;;;;4990077;28;20030;-82
2023/05/10 02:54:27;;;;;;;21.58;13.27;;;;;;;;;;4986501;28;20185;-82
2023/05/10 02:56:57;;;;;;;23.73;12.57;;;;;;;;;;4988589;28;20042;-82
2023/05/10 02:59:23;;;;;;;25.95;13.55;;;;;;;;;;4984727;28;20030;-82
2023/05/10 03:01:49;;;;;;;24.73;13.18;;;;;;;;;;4996711;28;20038;-82
2023/05/10 03:04:15;;;;;;;23.58;12.05;;;;;;;;;;4988099;28;20045;-82
2023/05/10 03:06:41;;;;;;;21.30;12.93;;;;;;;;;;4986671;28;20353;-82
2023/05/10 03:09:09;;;;;;;20.65;12.73;;;;;;;;;;4989293;28;20429;-81
2023/05/10 03:11:51;;;;;;;25.52;13.27;;;;;;;;;;4987281;28;20032;-81
2023/05/10 03:14:24;;;;;;;23.48;12.82;;;;;;;;;;4984801;28;20038;-81
2023/05/10 03:17:00;;;;;;;23.42;12.93;;;;;;;;;;4987622;28;20030;-82
2023/05/10 03:19:50;;;;;;;20.35;12.43;;;12.80;99.90;;;;;;4989308;28;20062;-82
2023/05/10 03:22:22;;;;;;;20.20;12.25;;;;;;;;;;4985791;28;20116;-81
2023/05/10 03:24:49;;;;;;;22.10;11.40;;;;;;;;;;4989260;28;20117;-81
2023/05/10 03:27:15;;;;;;;20.35;12.98;;;;;;;;;;4979690;28;20030;-81
2023/05/10 03:29:42;;;;;;;22.52;12.15;;;;;;;;;;4988209;28;20026;-84
2023/05/10 03:32:08;;;;;;;17.38;12.80;;;;;;;;;;4988159;28;20023;-82
2023/05/10 03:34:36;;;;;;;19.25;12.40;;;;;;;;;;4983285;28;20399;-82
2023/05/10 03:37:02;;;;;;;15.30;12.13;;;;;;;;;;4987811;28;20050;-82
2023/05/10 03:39:28;;;;;;;15.30;11.52;;;;;;;;;;4967442;28;20193;-83
2023/05/10 03:41:54;;;;;;;14.95;11.85;;;;;;;;;;4945983;28;20046;-82
2023/05/10 03:44:20;;;;;;;13.80;11.63;;;;;;;;;;4984691;28;20399;-82
2023/05/10 03:46:46;;;;;;;15.25;13.20;;;;;;;;;;4995165;28;20058;-82
2023/05/10 03:49:12;;;;;;;13.90;11.40;;;;;;;;;;4990636;28;20361;-82
2023/05/10 03:51:38;;;;;;;14.23;11.20;;;;;;;;;;4993325;28;20085;-83
2023/05/10 03:54:04;;;;;;;13.93;12.38;;;;;;;;;;4973539;28;20104;-83
2023/05/10 03:56:30;;;;;;;12.63;11.30;;;;;;;;;;4973860;28;20171;-83
2023/05/10 03:58:56;;;;;;;11.95;10.75;;;;;;;;;;4992398;28;20056;-83
2023/05/10 04:01:22;;;;;;;13.15;11.73;;;;;;;;;;4998158;28;20038;-82
2023/05/10 04:03:48;;;;;;;12.95;10.57;;;;;;;;;;4992198;28;20060;-83
2023/05/10 04:06:14;;;;;;;12.88;10.98;;;;;;;;;;4991724;28;20487;-81
2023/05/10 04:08:40;;;;;;;11.95;10.75;;;;;;;;;;4992746;28;20039;-81
2023/05/10 04:11:07;;;;;;;10.30;9.30;;;;;;;;;;4991258;28;20030;-81
2023/05/10 04:13:33;;;;;;;10.32;9.35;;;;;;;;;;4986670;28;20045;-82
2023/05/10 04:15:59;;;;;;;10.18;9.18;;;;;;;;;;4993072;28;20058;-83
2023/05/10 04:18:25;;;;;;;9.60;8.68;;;;;;;;;;4992483;28;20076;-83
2023/05/10 04:20:52;;;;;;;10.07;9.02;;;;;;;;;;4988750;28;20035;-83
2023/05/10 04:23:18;;;;;;;9.50;8.50;;;;;;;;;;4974317;28;20078;-82
2023/05/10 04:25:44;;;;;;;8.90;8.07;;;;;;;;;;4988146;28;20073;-83
2023/05/10 04:28:10;;;;;;;9.10;8.30;;;;;;;;;;4969703;28;20193;-81
2023/05/10 04:30:36;;;;;;;10.20;8.45;;;;;;;;;;4989386;28;20113;-82
2023/05/10 04:33:02;;;;;;;7.93;7.13;;;;;;;;;;4991319;28;20046;-82
2023/05/10 04:35:28;;;;;;;8.20;7.22;;;;;;;;;;4991196;28;20070;-82
2023/05/10 04:37:54;;;;;;;8.65;7.85;;;;;;;;;;4990577;28;20166;-82
2023/05/10 04:40:20;;;;;;;8.35;7.40;;;;;;;;;;4975362;28;20034;-82
2023/05/10 04:42:47;;;;;;;7.85;7.15;;;;;;;;;;4992239;28;20424;-81
2023/05/10 04:45:14;;;;;;;8.40;7.55;;;;;;;;;;4989226;28;20089;-81
2023/05/10 04:47:40;;;;;;;9.15;7.43;;;;;;;;;;4997856;28;20403;-83
2023/05/10 04:50:07;;;;;;;7.63;6.93;;;;;;;;;;4973756;28;20034;-82
2023/05/10 04:52:33;;;;;;;8.82;7.55;;;;;;;;;;4972409;28;20042;-83
2023/05/10 04:54:59;;;;;;;8.05;7.30;;;;;;;;;;4984352;28;20074;-82
2023/05/10 04:57:25;;;;;;;8.10;7.30;;;;;;;;;;4990388;28;20045;-82
2023/05/10 04:59:51;;;;;;;7.93;7.30;;;;;;;;;;4987128;28;20034;-82
2023/05/10 05:02:17;;;;;;;7.65;6.95;;;;;;;;;;4993088;28;20113;-83
2023/05/10 05:04:43;;;;;;;8.13;7.32;;;;;;;;;;4981198;28;20054;-82
2023/05/10 05:07:09;;;;;;;7.20;6.60;;;;;;;;;;4987034;28;20117;-82
2023/05/10 05:09:36;;;;;;;7.60;6.93;;;;;;;;;;4989821;28;20360;-81
2023/05/10 05:12:02;;;;;;;9.50;7.65;;;;;;;;;;4990485;28;20058;-81
2023/05/10 05:14:28;;;;;;;6.80;6.18;;;;;;;;;;4990749;28;20068;-82
2023/05/10 05:16:54;;;;;;;6.97;6.38;;;;;;;;;;4972222;28;20043;-83
2023/05/10 05:19:20;;;;;;;6.05;5.50;;;;;;;;;;4987592;28;20535;-81
2023/05/10 05:21:46;;;;;;;6.57;6.05;;;;;;;;;;4988484;28;20042;-82
2023/05/10 05:24:12;;;;;;;5.55;5.15;;;;;;;;;;4983697;28;20109;-82
2023/05/10 05:26:38;;;;;;;5.80;5.28;;;;;;;;;;4991913;28;20137;-83
2023/05/10 05:29:04;;;;;;;4.88;4.47;;;;;;;;;;4989354;28;20486;-82
2023/05/10 05:31:30;;;;;;;5.05;4.13;;;;;;;;;;4991581;28;20058;-83
2023/05/10 05:33:56;;;;;;;4.85;4.45;;;;;;;;;;4972126;28;20076;-82
2023/05/10 05:36:22;;;;;;;4.50;4.10;;;;;;;;;;4989736;28;20038;-82
2023/05/10 05:38:48;;;;;;;4.88;4.43;;;;;;;;;;4987844;28;20465;-82
2023/05/10 05:41:14;;;;;;;4.40;4.00;;;;;;;;;;4990633;28;20259;-83
2023/05/10 05:43:40;;;;;;;5.00;4.38;;;;;;;;;;4989663;28;20046;-83
2023/05/10 05:46:06;;;;;;;3.97;3.67;;;;;;;;;;4992030;28;20081;-83
2023/05/10 05:48:32;;;;;;;3.05;2.85;;;;;;;;;;4985357;28;20038;-84
2023/05/10 05:50:59;;;;;;;2.05;1.92;;;;;;;;;;4974193;28;20504;-81
2023/05/10 05:53:25;;;;;;;2.63;1.70;;;;;;;;;;4971460;28;20078;-81
2023/05/10 05:55:54;;;;;;;1.70;1.60;;;;;;;;;;4967770;28;20027;-81
2023/05/10 05:58:21;;;;;;;1.40;1.30;;;;;;;;;;4968261;28;20038;-81
2023/05/10 06:00:47;;;;;;;6.18;4.57;;;;;;;;;;4969187;28;20145;-82
2023/05/10 06:03:13;;;;;;;1.73;1.50;;;;;;;;;;4979560;28;20109;-82
2023/05/10 06:05:39;;;;;;;1.98;1.70;;;;;;;;;;4983915;28;20413;-81
2023/05/10 06:08:05;;;;;;;2.20;2.10;;;;;;;;;;4988418;28;20023;-81
2023/05/10 06:10:31;;;;;;;3.28;3.08;;;;;;;;;;4991744;28;20030;-81
2023/05/10 06:12:57;;;;;;;2.95;2.70;;;;;;;;;;4980017;28;20117;-81
2023/05/10 06:15:23;;;;;;;4.13;3.72;;;;;;;;;;4980015;28;20101;-81
2023/05/10 06:17:49;;;;;;;4.03;3.72;;;;;;;;;;4970211;28;20117;-81
2023/05/10 06:20:16;;;;;;;4.65;4.25;;;;;;;;;;4989876;28;20058;-85
2023/05/10 06:22:42;;;;;;;4.38;3.88;;;;;;;;;;4968177;28;20026;-87
2023/05/10 06:25:09;;;;;;;3.95;3.55;;;;;;;;;;4982246;28;20027;-84
2023/05/10 06:27:35;;;;;;;5.28;3.25;;;;;;;;;;4980823;28;20046;-85
2023/05/10 06:30:01;;;;;;;3.75;3.25;;;;;;;;;;4966887;28;20106;-93
2023/05/10 06:32:27;;;;;;;4.10;3.70;;;;;;;;;;4982989;28;20086;-87
2023/05/10 06:34:53;;;;;;;4.03;3.50;;;;;;;;;;4961488;28;20039;-88
2023/05/10 06:37:19;;;;;;;4.28;3.55;;;;;;;;;;4979049;28;20050;-85
2023/05/10 06:39:45;;;;;;;3.95;3.53;;;;;;;;;;4971119;28;20026;-87
2023/05/10 06:42:11;;;;;;;3.55;3.25;;;;;;;;;;4978644;28;20034;-86
2023/05/10 06:44:37;;;;;;;3.80;3.50;;;;;;;;;;4978592;28;20526;-86
2023/05/10 06:47:03;;;;;;;4.32;3.92;;;;;;;;;;4964260;28;20034;-83
2023/05/10 06:49:29;;;;;;;8.88;4.20;;;;;;;;;;4978215;28;20089;-84
2023/05/10 06:51:56;;;;;;;4.57;4.13;;;;;;;;;;4969127;28;20023;-84
2023/05/10 06:54:22;;;;;;;4.55;3.90;;;;;;;;;;4983817;28;20026;-84
2023/05/10 06:56:48;;;;;;;5.95;4.00;;;;;;;;;;4981651;28;20030;-84
2023/05/10 06:59:16;;;;;;;8.77;4.55;;;;;;;;;;4980451;28;20040;-85
2023/05/10 07:01:42;;;;;;;5.07;3.92;;;;;;;;;;4979188;28;20168;-90
2023/05/10 07:04:08;;;;;;;6.47;4.07;;;;;;;;;;4981564;28;20034;-84
2023/05/10 07:06:35;;;;;;;5.57;3.72;;;;;;;;;;4985783;28;20311;-87
2023/05/10 07:09:01;;;;;;;5.90;4.22;;;;;;;;;;4992878;28;20384;-85
2023/05/10 07:11:27;;;;;;;4.65;3.65;;;;;;;;;;4987574;28;20023;-82
2023/05/10 07:13:53;;;;;;;3.05;2.80;;;;;;;;;;4989420;28;20847;-82
2023/05/10 07:16:19;;;;;;;3.30;2.47;;;;;;;;;;4971053;28;20031;-85
2023/05/10 07:18:45;;;;;;;4.70;2.38;;;;;;;;;;4982578;28;20027;-85
2023/05/10 07:21:11;;;;;;;2.78;2.50;;;;;;;;;;4980351;28;20026;-85
2023/05/10 07:23:37;;;;;;;6.30;5.40;;;;;;;;;;4984490;28;20486;-91
2023/05/10 07:26:03;;;;;;;6.47;3.00;;;;;;;;;;4984555;28;20146;-88
2023/05/10 07:28:29;;;;;;;3.35;2.97;;;;;;;;;;4969711;28;20104;-89
2023/05/10 07:30:55;;;;;;;4.03;3.30;;;;;;;;;;4990223;28;20018;-83
2023/05/10 07:33:21;;;;;;;6.18;3.65;;;;;;;;;;4961609;28;20045;-88
2023/05/10 07:35:47;;;;;;;4.35;3.42;;;;;;;;;;4976836;28;20030;-91
2023/05/10 07:38:14;;;;;;;4.60;3.40;;;;;;;;;;4987759;28;20061;-82
2023/05/10 07:40:40;;;;;;;6.18;3.25;;;;;;;;;;4990306;28;20058;-87
2023/05/10 07:43:06;;;;;;;7.65;3.67;;;;;;;;;;4976941;28;20073;-86
2023/05/10 07:45:33;;;;;;;4.72;3.22;;;;;;;;;;4978928;28;20022;-83
2023/05/10 07:47:59;;;;;;;7.93;3.80;;;;;;;;;;4989807;28;20046;-86
2023/05/10 07:50:25;;;;;;;6.68;3.88;;;;;;;;;;4990464;28;20487;-90
2023/05/10 07:52:51;;;;;;;6.57;3.80;;;;;;;;;;4964838;28;20034;-88
2023/05/10 07:55:19;;;;;;;4.13;3.50;;;;;;;;;;4981732;28;20046;-88
2023/05/10 07:57:45;;;;;;;5.40;3.55;;;;;;;;;;4989924;28;20049;-88
2023/05/10 08:00:13;;;;;;;3.95;3.05;;;;;;;;;;4988303;28;20464;-90
2023/05/10 08:02:39;;;;;;;5.22;3.45;;;;;;;;;;4973792;28;20027;-88
2023/05/10 08:05:06;;;;;;;7.32;3.70;;;;;;;;;;4985867;28;20114;-88
2023/05/10 08:07:32;;;;;;;4.78;3.50;;;;;;;;;;4981224;28;20030;-85
2023/05/10 08:09:58;;;;;;;6.68;3.20;;;;;;;;;;4978703;28;20035;-84
2023/05/10 08:12:24;;;;;;;5.25;3.45;;;;;;;;;;4979346;28;20082;-91
2023/05/10 08:14:50;;;;;;;9.20;3.20;;;;;;;;;;4976835;28;20050;-86
2023/05/10 08:17:16;;;;;;;5.13;3.25;;;;;;;;;;4982752;28;20086;-86
2023/05/10 08:19:42;;;;;;;4.97;3.22;;;;;;;;;;4984927;28;20026;-91
2023/05/10 08:22:08;;;;;;;3.45;3.08;;;;;;;;;;4985107;28;20026;-89
2023/05/10 08:24:38;;;;;;;4.25;3.00;;;;;;;;;;4979983;28;20038;-91
2023/05/10 08:27:04;;;;;;;4.05;3.17;;;;;;;;;;4976777;28;20388;-88
2023/05/10 08:29:30;;;;;;;8.07;3.67;;;;;;;;;;4992234;28;20076;-87
2023/05/10 08:31:56;;;;;;;4.00;3.08;;;;;;;;;;4972783;28;20499;-84
2023/05/10 08:34:22;;;;;;;5.13;3.63;;;;;;;;;;4979838;28;20031;-82
2023/05/10 08:36:48;;;;;;;5.55;4.13;;;;;;;;;;4980815;28;20642;-82
2023/05/10 08:39:14;;;;;;;114.07;69.25;;;;;;;;;;4978403;28;20035;-84
2023/05/10 08:41:40;;;;;;;22.08;16.85;;;;;;;;;;4980366;28;20039;-85
2023/05/10 08:44:08;;;;;;;8.35;4.72;;;;;;;;;;4979452;28;20109;-83
2023/05/10 08:46:43;;;;;;;4.70;3.97;;;;;;;;;;4978372;28;20082;-82
2023/05/10 08:49:13;;;;;;;5.28;3.50;;;;;;;;;;4981494;28;20109;-85
2023/05/10 08:51:44;;;;;;;4.53;3.55;;;;;;;;;;4980002;28;20062;-84
2023/05/10 08:54:10;;;;;;;4.22;3.33;;;;;;;;;;4965343;28;20053;-87
2023/05/10 08:56:36;;;;;;;4.22;3.25;;;;;;;;;;4967758;28;20042;-82
2023/05/10 08:59:02;;;;;;;4.85;3.00;;;;;;;;;;4977711;28;20046;-85
2023/05/10 09:01:29;;;;;;;4.18;3.20;;;;;;;;;;4979076;28;20047;-84
2023/05/10 09:03:55;;;;;;;3.75;2.90;;;;;;;;;;4980947;28;20042;-86
2023/05/10 09:06:22;;;;;;;3.20;2.90;;;;;;;;;;4980652;28;20154;-85
2023/05/10 09:08:48;;;;;;;3.80;3.38;;;;;;;;;;4979136;28;20491;-84
2023/05/10 09:11:14;;;;;;;5.03;3.22;;;;;;;;;;4979322;28;20031;-81
2023/05/10 09:13:40;;;;;;;15.98;10.77;;;;;;;;;;4979206;28;20089;-80
2023/05/10 09:16:06;;;;;;;4.82;4.32;;;;;;;;;;4979261;28;20038;-80
2023/05/10 09:18:32;;;;;;;7.43;4.43;;;;;;;;;;4981409;28;20044;-79
2023/05/10 09:20:58;;;;;;;5.97;4.10;;;;;;;;;;4980059;28;20109;-79
2023/05/10 09:23:31;;;;;;;6.05;3.90;;;;;;;;;;4980152;28;20088;-79
2023/05/10 09:26:06;;;;;;;7.22;4.28;;;;;;;;;;4968477;28;20030;-79
2023/05/10 09:28:33;;;;;;;5.82;4.30;;;;;;;;;;4978848;28;20038;-80
2023/05/10 09:30:59;;;;;;;5.35;4.15;;;;;;;;;;4967687;28;20030;-82
2023/05/10 09:33:25;;;;;;;10.05;8.13;;;;;;;;;;4981326;28;21550;-78
2023/05/10 09:35:52;;;;;;;6.15;4.15;;;;;;;;;;4978970;28;20472;-82
2023/05/10 09:38:18;;;;;;;5.38;4.78;;;;;;;;;;4977574;28;20054;-83
2023/05/10 09:40:54;;;;;;;8.15;4.50;;;;;;;;;;4979135;28;20842;-86
2023/05/10 09:43:20;;;;;;;10.00;4.38;;;;;;;;;;4981401;28;20058;-83
2023/05/10 09:45:50;;;;;;;9.75;4.60;;;;;;;;;;4979647;28;20058;-82
2023/05/10 09:48:15;;;;;;;5.78;4.50;;;;;;;;;;4977481;28;20476;-78
2023/05/10 09:50:41;;;;;;;7.30;4.50;;;;;;;;;;4979874;28;20026;-82
2023/05/10 09:53:07;;;;;;;6.57;4.22;;;;;;;;;;4977388;28;20054;-83
2023/05/10 09:55:36;;;;;;;7.25;4.15;;;;;;;;;;4979918;28;20479;-83
2023/05/10 09:58:04;;;;;;;5.15;4.25;;;;;;;;;;4980283;28;20499;-79
2023/05/10 10:00:35;;;;;;;8.88;5.40;;;;;;;;;;4985531;28;20033;-86
2023/05/10 10:03:01;;;;;;;6.25;4.72;;;;;;;;;;4965666;28;20038;-81
2023/05/10 10:05:30;;;;;;;5.50;4.50;;;;;;;;;;4983774;28;20143;-81
2023/05/10 10:08:00;;;;;;;5.25;4.38;;;;;;;;;;4976498;28;20547;-80
2023/05/10 10:10:27;;;;;;;4.60;4.13;;;;;;;;;;4977985;28;20034;-82
2023/05/10 10:12:53;;;;;;;5.70;4.80;;;;;;;;;;4960628;28;20047;-82
2023/05/10 10:15:20;;;;;;;5.55;4.72;;;;;;;;;;4977356;28;20042;-77
2023/05/10 10:17:47;;;;;;;9.52;6.05;;;;;;;;;;4962615;28;20499;-83
2023/05/10 10:20:13;;;;;;;8.88;5.85;;;;;;;;;;4965265;28;20046;-83
2023/05/10 10:22:39;;;;;;;11.05;5.22;;;;;;;;;;4958621;28;20387;-78
2023/05/10 10:25:05;;;;;;;6.88;5.05;;;;;;;;;;4976393;28;20042;-79
2023/05/10 10:27:31;;;;;;;7.40;5.38;;;;;;;;;;4977472;28;20569;-78
2023/05/10 10:30:03;;;;;;;5.78;4.60;;;;;;;;;;4978754;28;20085;-83
2023/05/10 10:33:09;;;;;;;6.32;5.10;;;16.00;99.90;;;;;;4976801;28;20030;-82
2023/05/10 10:35:35;;;;;;;7.70;5.70;;;;;;;;;;4941699;28;20049;-85
2023/05/10 10:38:01;;;;;;;9.35;5.65;;;;;;;;;;4975745;28;20081;-80
2023/05/10 10:40:34;;;;;;;7.93;5.85;;;;;;;;;;4981624;28;20018;-82
2023/05/10 10:43:19;;;;;;;6.93;5.70;;;;;;;;;;4959612;28;20550;-82
2023/05/10 10:46:05;;;;;;;9.63;5.90;;;;;;;;;;4976658;28;20064;-85
2023/05/10 10:48:31;;;;;;;9.00;6.53;;;;;;;;;;4980715;28;20108;-84
2023/05/10 10:50:57;;;;;;;7.13;6.20;;;;;;;;;;4978687;28;20090;-80
2023/05/10 10:53:27;;;;;;;9.00;7.28;;;;;;;;;;4979912;28;20035;-92
2023/05/10 10:56:02;;;;;;;8.00;6.90;;;;;;;;;;4978327;28;20145;-83
2023/05/10 10:58:32;;;;;;;8.90;6.30;;;;;;;;;;4978805;28;20027;-81
2023/05/10 11:01:15;;;;;;;7.85;6.10;;;;;;;;;;4976409;28;20054;-79
2023/05/10 11:03:41;;;;;;;8.45;5.10;;;;;;;;;;4978052;28;20037;-79
2023/05/10 11:06:08;;;;;;;8.55;4.97;;;;;;;;;;4963489;28;20054;-79
2023/05/10 11:08:35;;;;;;;8.43;5.28;;;;;;;;;;4977372;28;20034;-79
2023/05/10 11:11:06;;;;;;;6.80;4.90;;;;;;;;;;4979727;28;20117;-78
2023/05/10 11:13:45;;;;;;;6.93;5.20;;;;;;;;;;4977846;28;20034;-79
2023/05/10 11:16:23;;;;;;;6.25;5.22;;;;;;;;;;4977997;28;20628;-79
2023/05/10 11:18:53;;;;;;;6.32;5.10;;;;;;;;;;4978054;28;20030;-81
2023/05/10 11:21:20;;;;;;;6.68;5.97;;;;;;;;;;4979938;28;20034;-78
2023/05/10 11:23:49;;;;;;;6.75;5.80;;;;;;;;;;4977085;28;20038;-82
2023/05/10 11:26:15;;;;;;;7.60;5.43;;;;;;;;;;4959690;28;20114;-81
2023/05/10 11:28:42;;;;;;;7.13;5.88;;;;;;;;;;4977226;28;20117;-84
2023/05/10 11:31:08;;;;;;;7.30;6.10;;;;;;;;;;4976688;28;20196;-76
2023/05/10 11:33:43;;;;;;;6.97;6.20;;;;;;;;;;4973940;28;20062;-83
2023/05/10 11:36:11;;;;;;;7.40;6.25;;;;;;;;;;4983602;28;20023;-83
2023/05/10 11:38:37;;;;;;;7.50;5.22;;;;;;;;;;4989155;28;20055;-82
2023/05/10 11:41:03;;;;;;;8.32;5.60;;;;;;;;;;4986538;28;20411;-81
2023/05/10 11:43:30;;;;;;;7.18;5.57;;;;;;;;;;4987496;28;20057;-82
2023/05/10 11:45:56;;;;;;;7.45;6.10;;;;;;;;;;4969335;28;20046;-81
2023/05/10 11:48:23;;;;;;;6.68;5.90;;;;;;;;;;4988499;28;20026;-85
2023/05/10 11:50:50;;;;;;;9.00;6.38;;;;;;;;;;4981394;28;20058;-84
2023/05/10 11:53:16;;;;;;;8.25;6.03;;;;;;;;;;4987139;28;20034;-82
2023/05/10 11:55:42;;;;;;;6.68;5.97;;;;;;;;;;4983945;28;20037;-84
2023/05/10 11:58:08;;;;;;;10.02;6.88;;;;;;;;;;4987505;28;20113;-80
2023/05/10 12:00:34;;;;;;;7.93;7.13;;;;;;;;;;4991710;28;20050;-82
2023/05/10 12:03:01;;;;;;;7.63;6.80;;;;;;;;;;4986720;28;20038;-82
2023/05/10 12:05:27;;;;;;;10.52;7.25;;;;;;;;;;4990194;28;20178;-82
2023/05/10 12:07:53;;;;;;;11.75;8.23;;;;;;;;;;4972598;28;20483;-83
2023/05/10 12:10:25;;;;;;;10.90;8.73;;;;;;;;;;4986516;28;20038;-84
2023/05/10 12:12:52;;;;;;;9.98;7.45;;;;;;;;;;4989834;28;20128;-82
2023/05/10 12:15:19;;;;;;;11.70;8.35;;;;;;;;;;5000711;28;20298;-84
2023/05/10 12:17:45;;;;;;;8.82;7.03;;;;;;;;;;4994220;28;20487;-83
2023/05/10 12:20:18;;;;;;;7.85;6.80;;;;;;;;;;4987829;28;20324;-83
2023/05/10 12:22:44;;;;;;;9.32;6.68;;;;;;;;;;4989403;28;20426;-84
2023/05/10 12:25:10;;;;;;;8.25;7.10;;;;;;;;;;4991333;28;20044;-80
2023/05/10 12:27:36;;;;;;;9.45;7.45;;;;;;;;;;4968345;28;20041;-82
2023/05/10 12:30:03;;;;;;;7.70;6.80;;;;;;;;;;4988078;28;20030;-82
2023/05/10 12:32:42;;;;;;;11.45;6.25;;;;;;;;;;4993895;28;20069;-81
2023/05/10 12:35:08;;;;;;;6.97;6.28;;;;;;;;;;4980005;28;20044;-84
2023/05/10 12:37:38;;;;;;;6.57;5.82;;;;;;;;;;4987129;28;20030;-84
2023/05/10 12:40:05;;;;;;;6.82;5.60;;;;;;;;;;4991922;28;20053;-82
2023/05/10 12:42:32;;;;;;;5.60;4.82;;;;;;;;;;4989758;28;20030;-82
2023/05/10 12:44:58;;;;;;;7.68;5.50;;;;;;;;;;4991817;28;20034;-83
2023/05/10 12:47:24;;;;;;;6.85;4.97;;;;;;;;;;4995057;28;20038;-84
2023/05/10 12:49:51;;;;;;;7.18;4.70;;;;;;;;;;4988945;28;20035;-84
2023/05/10 12:52:17;;;;;;;5.68;4.45;;;;;;;;;;4973410;28;20027;-86
2023/05/10 12:54:42;;;;;;;5.70;4.78;;;;;;;;;;4985004;28;20060;-85
2023/05/10 12:57:08;;;;;;;6.55;4.57;;;;;;;;;;4990256;28;20039;-81
2023/05/10 12:59:35;;;;;;;6.78;4.38;;;;;;;;;;4987791;28;20034;-82
2023/05/10 13:02:01;;;;;;;4.38;3.97;;;;;;;;;;4999160;28;20026;-82
2023/05/10 13:04:27;;;;;;;4.97;4.47;;;;;;;;;;4990454;28;20041;-84
2023/05/10 13:06:55;;;;;;;5.50;3.95;;;;;;;;;;4989903;28;20046;-87
2023/05/10 13:09:21;;;;;;;5.88;4.18;;;;;;;;;;4990737;28;20094;-82
2023/05/10 13:11:48;;;;;;;4.40;4.00;;;;;;;;;;4988898;28;20600;-82
2023/05/10 13:14:14;;;;;;;6.07;4.20;;;;;;;;;;4972881;28;20030;-84
2023/05/10 13:16:40;;;;;;;4.20;3.80;;;;;;;;;;4990580;28;20111;-86
2023/05/10 13:19:06;;;;;;;3.70;3.40;;;;;;;;;;4984494;28;20492;-86
2023/05/10 13:21:32;;;;;;;4.65;3.67;;;;;;;;;;4986546;28;20058;-83
2023/05/10 13:23:58;;;;;;;3.65;3.35;;;;;;;;;;4988729;28;20042;-87
2023/05/10 13:26:25;;;;;;;4.05;3.65;;;;;;;;;;4990467;28;20026;-85
2023/05/10 13:28:51;;;;;;;6.53;4.65;;;;;;;;;;4963974;28;20194;-86
2023/05/10 13:31:17;;;;;;;5.03;4.45;;;;;;;;;;4986692;28;20034;-86
2023/05/10 13:33:43;;;;;;;5.28;3.90;;;;;;;;;;4989157;28;20064;-86
2023/05/10 13:36:09;;;;;;;5.75;4.55;;;;;;;;;;4991566;28;20041;-84
2023/05/10 13:38:36;;;;;;;5.18;4.68;;;;;;;;;;4986712;28;20057;-86
2023/05/10 13:41:01;;;;;;;5.43;4.43;;;;;;;;;;4987162;28;20388;-82
2023/05/10 13:43:27;;;;;;;4.65;4.15;;;;;;;;;;4991650;28;20047;-86
2023/05/10 13:45:54;;;;;;;5.90;4.90;;;;;;;;;;4989448;28;20042;-85
2023/05/10 13:48:20;;;;;;;7.03;4.55;;;;;;;;;;4989859;28;20061;-85
2023/05/10 13:50:46;;;;;;;4.78;4.30;;;;;;;;;;4988535;28;20074;-83
2023/05/10 13:53:12;;;;;;;6.28;4.88;;;;;;;;;;4988113;28;20031;-85
2023/05/10 13:55:38;;;;;;;5.28;4.20;;;;;;;;;;4989036;28;20034;-87
2023/05/10 13:58:04;;;;;;;7.60;4.00;;;;;;;;;;4985847;28;20312;-83
2023/05/10 14:00:30;;;;;;;6.38;4.47;;;;;;;;;;4990379;28;20112;-88
2023/05/10 14:02:56;;;;;;;7.10;5.38;;;;;;;;;;4982097;28;20117;-83
2023/05/10 14:05:23;;;;;;;9.20;6.70;;;;;;;;;;4988407;28;20101;-84
2023/05/10 14:07:49;;;;;;;10.95;7.00;;;;;;;;;;4987174;28;20030;-86
2023/05/10 14:10:15;;;;;;;9.40;7.15;;;;;;;;;;4989815;28;20026;-85
2023/05/10 14:12:41;;;;;;;7.65;6.07;;;;;;;;;;4986085;28;20026;-87
2023/05/10 14:15:07;;;;;;;9.95;6.53;;;;;;;;;;4986813;28;20039;-86
2023/05/10 14:17:33;;;;;;;8.88;5.35;;;;;;;;;;4997224;28;20514;-79
2023/05/10 14:19:59;;;;;;;8.13;5.07;;;;;;;;;;4989335;28;20038;-82
2023/05/10 14:22:25;;;;;;;6.63;4.90;;;;;;;;;;4987844;28;20018;-90
2023/05/10 14:24:51;;;;;;;4.45;4.00;;;;;;;;;;4972048;28;20391;-89
2023/05/10 14:27:17;;;;;;;7.60;5.18;;;;;;;;;;4983973;28;20150;-87
2023/05/10 14:29:43;;;;;;;3.78;2.95;;;;;;;;;;4987825;28;20038;-86
2023/05/10 14:32:10;;;;;;;6.32;2.95;;;;;;;;;;4995877;28;20030;-86
2023/05/10 14:34:36;;;;;;;4.35;3.05;;;;;;;;;;4989466;28;20045;-83
2023/05/10 14:37:02;;;;;;;5.63;3.25;;;;;;;;;;4986763;28;20306;-88